PLF038 EPOK-EPWA
Flight info
| Callsign | PLF038 |
|---|---|
| Flight time | 0h 53m |
| Altitude | 15000 |
| Route | OSLOG Z95 GRUDA N191 LASGU DCT SORIX |
| Aircraft | C295/M-SDFGIRY/S |
Departure
| Time | 2026-04-20 07:03 |
|---|---|
| Airport | Oksywie Air Base / Gdynia-Kosakowo Airfield (EPOK) |
Arrival
| Time | 2026-04-20 07:56 |
|---|---|
| Airport | Warsaw Chopin Airport (EPWA) |
| Time | Latitude | Longitude | Altitude | Speed | Heading |
|---|---|---|---|---|---|
| 2026-04-20 06:46 | 54.58743 | 18.51059 | 128 ft | 0 kts | 359° |
| 2026-04-20 06:55 | 54.58744 | 18.51063 | 126 ft | 1 kts | 36° |
| 2026-04-20 06:55 | 54.58738 | 18.51080 | 125 ft | 3 kts | 136° |
| 2026-04-20 06:56 | 54.58711 | 18.51127 | 126 ft | 7 kts | 135° |
| 2026-04-20 06:56 | 54.58680 | 18.51210 | 125 ft | 8 kts | 135° |
| 2026-04-20 06:56 | 54.58621 | 18.51274 | 125 ft | 13 kts | 148° |
| 2026-04-20 06:56 | 54.58537 | 18.51367 | 127 ft | 16 kts | 147° |
| 2026-04-20 06:57 | 54.58440 | 18.51476 | 130 ft | 18 kts | 147° |
| 2026-04-20 06:57 | 54.58333 | 18.51593 | 132 ft | 18 kts | 148° |
| 2026-04-20 06:57 | 54.58240 | 18.51693 | 133 ft | 14 kts | 148° |
| 2026-04-20 06:57 | 54.58167 | 18.51777 | 133 ft | 12 kts | 146° |
| 2026-04-20 06:58 | 54.58097 | 18.51850 | 133 ft | 12 kts | 148° |
| 2026-04-20 06:58 | 54.58031 | 18.51925 | 133 ft | 11 kts | 144° |
| 2026-04-20 06:58 | 54.57968 | 18.51998 | 133 ft | 11 kts | 146° |
| 2026-04-20 06:58 | 54.57912 | 18.52082 | 133 ft | 10 kts | 135° |
| 2026-04-20 06:59 | 54.57867 | 18.52159 | 132 ft | 8 kts | 135° |
| 2026-04-20 06:59 | 54.57822 | 18.52229 | 132 ft | 10 kts | 140° |
| 2026-04-20 06:59 | 54.57759 | 18.52333 | 132 ft | 14 kts | 135° |
| 2026-04-20 06:59 | 54.57679 | 18.52466 | 132 ft | 17 kts | 135° |
| 2026-04-20 07:00 | 54.57585 | 18.52620 | 131 ft | 20 kts | 135° |
| 2026-04-20 07:00 | 54.57481 | 18.52791 | 131 ft | 22 kts | 133° |
| 2026-04-20 07:00 | 54.57374 | 18.52964 | 130 ft | 19 kts | 133° |
| 2026-04-20 07:00 | 54.57292 | 18.53100 | 130 ft | 17 kts | 132° |
| 2026-04-20 07:01 | 54.57206 | 18.53154 | 128 ft | 16 kts | 222° |
| 2026-04-20 07:01 | 54.57184 | 18.52994 | 127 ft | 6 kts | 339° |
| 2026-04-20 07:01 | 54.57198 | 18.52984 | 128 ft | 0 kts | 314° |
| 2026-04-20 07:02 | 54.57202 | 18.52978 | 127 ft | 11 kts | 314° |
| 2026-04-20 07:02 | 54.57412 | 18.52649 | 130 ft | 70 kts | 323° |
| 2026-04-20 07:02 | 54.57897 | 18.51854 | 132 ft | 118 kts | 313° |
| 2026-04-20 07:03 | 54.58526 | 18.50715 | 215 ft | 136 kts | 311° |
| 2026-04-20 07:03 | 54.59153 | 18.49539 | 587 ft | 139 kts | 319° |
| 2026-04-20 07:03 | 54.59837 | 18.48259 | 1032 ft | 148 kts | 320° |
| 2026-04-20 07:03 | 54.60177 | 18.46545 | 1458 ft | 171 kts | 252° |
| 2026-04-20 07:04 | 54.59416 | 18.45119 | 1854 ft | 165 kts | 188° |
| 2026-04-20 07:04 | 54.58396 | 18.45265 | 2374 ft | 136 kts | 139° |
| 2026-04-20 07:04 | 54.57522 | 18.46041 | 2530 ft | 155 kts | 149° |
| 2026-04-20 07:04 | 54.56454 | 18.46687 | 2788 ft | 166 kts | 153° |
| 2026-04-20 07:05 | 54.55343 | 18.47273 | 3178 ft | 168 kts | 155° |
| 2026-04-20 07:05 | 54.54200 | 18.47780 | 3597 ft | 171 kts | 158° |
| 2026-04-20 07:05 | 54.53032 | 18.48237 | 3986 ft | 174 kts | 160° |
| 2026-04-20 07:05 | 54.51830 | 18.48635 | 4379 ft | 177 kts | 161° |
| 2026-04-20 07:06 | 54.50619 | 18.49041 | 4776 ft | 178 kts | 160° |
| 2026-04-20 07:06 | 54.49404 | 18.49473 | 5147 ft | 179 kts | 160° |
| 2026-04-20 07:06 | 54.48181 | 18.49913 | 5522 ft | 179 kts | 160° |
| 2026-04-20 07:06 | 54.46956 | 18.50365 | 5939 ft | 180 kts | 160° |
| 2026-04-20 07:07 | 54.45744 | 18.50822 | 6347 ft | 181 kts | 159° |
| 2026-04-20 07:07 | 54.44510 | 18.51277 | 6697 ft | 182 kts | 160° |
| 2026-04-20 07:07 | 54.43267 | 18.51727 | 7014 ft | 183 kts | 160° |
| 2026-04-20 07:07 | 54.42011 | 18.52180 | 7338 ft | 185 kts | 160° |
| 2026-04-20 07:08 | 54.40748 | 18.52638 | 7660 ft | 186 kts | 160° |
| 2026-04-20 07:08 | 54.39474 | 18.53099 | 8002 ft | 187 kts | 160° |
| 2026-04-20 07:08 | 54.38193 | 18.53560 | 8322 ft | 189 kts | 160° |
| 2026-04-20 07:08 | 54.36903 | 18.54026 | 8638 ft | 190 kts | 160° |
| 2026-04-20 07:09 | 54.35606 | 18.54490 | 8961 ft | 191 kts | 160° |
| 2026-04-20 07:09 | 54.34314 | 18.54957 | 9289 ft | 192 kts | 160° |
| 2026-04-20 07:09 | 54.32999 | 18.55430 | 9623 ft | 193 kts | 161° |
| 2026-04-20 07:09 | 54.31678 | 18.55903 | 9950 ft | 195 kts | 161° |
| 2026-04-20 07:10 | 54.30345 | 18.56378 | 10263 ft | 196 kts | 161° |
| 2026-04-20 07:10 | 54.29007 | 18.56860 | 10538 ft | 197 kts | 161° |
| 2026-04-20 07:10 | 54.27660 | 18.57346 | 10810 ft | 198 kts | 161° |
| 2026-04-20 07:10 | 54.26306 | 18.57830 | 11091 ft | 199 kts | 161° |
| 2026-04-20 07:11 | 54.24945 | 18.58317 | 11394 ft | 200 kts | 161° |
| 2026-04-20 07:11 | 54.23576 | 18.58805 | 11686 ft | 202 kts | 161° |
| 2026-04-20 07:11 | 54.22214 | 18.59288 | 11966 ft | 203 kts | 162° |
| 2026-04-20 07:11 | 54.20829 | 18.59783 | 12234 ft | 204 kts | 162° |
| 2026-04-20 07:12 | 54.19437 | 18.60275 | 12502 ft | 205 kts | 162° |
| 2026-04-20 07:12 | 54.18037 | 18.60780 | 12758 ft | 206 kts | 162° |
| 2026-04-20 07:12 | 54.16626 | 18.61284 | 13008 ft | 207 kts | 162° |
| 2026-04-20 07:12 | 54.15208 | 18.61772 | 13284 ft | 209 kts | 162° |
| 2026-04-20 07:13 | 54.13783 | 18.62261 | 13528 ft | 210 kts | 162° |
| 2026-04-20 07:13 | 54.12346 | 18.62764 | 13795 ft | 211 kts | 163° |
| 2026-04-20 07:13 | 54.10906 | 18.63271 | 14038 ft | 212 kts | 162° |
| 2026-04-20 07:13 | 54.09458 | 18.63784 | 14281 ft | 213 kts | 162° |
| 2026-04-20 07:14 | 54.08022 | 18.64306 | 14501 ft | 214 kts | 162° |
| 2026-04-20 07:14 | 54.06564 | 18.64840 | 14715 ft | 215 kts | 162° |
| 2026-04-20 07:14 | 54.05092 | 18.65371 | 14950 ft | 216 kts | 162° |
| 2026-04-20 07:14 | 54.03597 | 18.65910 | 15046 ft | 223 kts | 162° |
| 2026-04-20 07:15 | 54.02051 | 18.66471 | 15089 ft | 232 kts | 163° |
| 2026-04-20 07:15 | 54.00438 | 18.67035 | 15097 ft | 240 kts | 163° |
| 2026-04-20 07:15 | 53.98775 | 18.67600 | 15107 ft | 247 kts | 163° |
| 2026-04-20 07:15 | 53.97070 | 18.68185 | 15109 ft | 252 kts | 164° |
| 2026-04-20 07:16 | 53.95356 | 18.68775 | 15113 ft | 257 kts | 164° |
| 2026-04-20 07:16 | 53.93587 | 18.69393 | 15111 ft | 261 kts | 163° |
| 2026-04-20 07:16 | 53.91797 | 18.70022 | 15113 ft | 264 kts | 164° |
| 2026-04-20 07:16 | 53.90027 | 18.70642 | 15104 ft | 267 kts | 164° |
| 2026-04-20 07:17 | 53.88154 | 18.71304 | 15104 ft | 269 kts | 164° |
| 2026-04-20 07:17 | 53.86319 | 18.71953 | 15109 ft | 270 kts | 164° |
| 2026-04-20 07:17 | 53.84468 | 18.72612 | 15108 ft | 272 kts | 163° |
| 2026-04-20 07:17 | 53.82616 | 18.73279 | 15102 ft | 273 kts | 164° |
| 2026-04-20 07:18 | 53.80753 | 18.73941 | 15098 ft | 274 kts | 164° |
| 2026-04-20 07:18 | 53.78907 | 18.74585 | 15093 ft | 274 kts | 164° |
| 2026-04-20 07:18 | 53.77037 | 18.75230 | 15097 ft | 275 kts | 165° |
| 2026-04-20 07:18 | 53.75147 | 18.75739 | 15094 ft | 276 kts | 171° |
| 2026-04-20 07:19 | 53.73213 | 18.75907 | 15093 ft | 278 kts | 175° |
| 2026-04-20 07:19 | 53.71272 | 18.76026 | 15093 ft | 278 kts | 174° |
| 2026-04-20 07:19 | 53.69335 | 18.76175 | 15086 ft | 278 kts | 173° |
| 2026-04-20 07:19 | 53.68053 | 18.76305 | 15092 ft | 278 kts | 172° |
| 2026-04-20 07:20 | 53.66120 | 18.76545 | 15087 ft | 278 kts | 171° |
| 2026-04-20 07:20 | 53.63565 | 18.76884 | 15079 ft | 278 kts | 172° |
| 2026-04-20 07:20 | 53.61633 | 18.77124 | 15079 ft | 278 kts | 172° |
| 2026-04-20 07:20 | 53.60331 | 18.77281 | 15077 ft | 277 kts | 172° |
| 2026-04-20 07:21 | 53.58403 | 18.77498 | 15078 ft | 277 kts | 173° |
| 2026-04-20 07:21 | 53.56480 | 18.77702 | 15079 ft | 277 kts | 173° |
| 2026-04-20 07:21 | 53.54577 | 18.77913 | 15074 ft | 277 kts | 172° |
| 2026-04-20 07:21 | 53.52667 | 18.78225 | 15071 ft | 273 kts | 162° |
| 2026-04-20 07:22 | 53.50972 | 18.79513 | 15074 ft | 265 kts | 144° |
| 2026-04-20 07:22 | 53.49477 | 18.81302 | 15071 ft | 263 kts | 137° |
| 2026-04-20 07:22 | 53.48065 | 18.83246 | 15072 ft | 262 kts | 137° |
| 2026-04-20 07:22 | 53.46656 | 18.85202 | 15071 ft | 263 kts | 137° |
| 2026-04-20 07:23 | 53.45213 | 18.87107 | 15071 ft | 264 kts | 139° |
| 2026-04-20 07:23 | 53.43749 | 18.88975 | 15066 ft | 264 kts | 140° |
| 2026-04-20 07:23 | 53.42282 | 18.90836 | 15068 ft | 265 kts | 139° |
| 2026-04-20 07:23 | 53.40811 | 18.92700 | 15070 ft | 265 kts | 139° |
| 2026-04-20 07:24 | 53.39338 | 18.94567 | 15064 ft | 265 kts | 140° |
| 2026-04-20 07:24 | 53.37869 | 18.96435 | 15061 ft | 265 kts | 140° |
| 2026-04-20 07:24 | 53.36421 | 18.98286 | 15062 ft | 265 kts | 139° |
| 2026-04-20 07:24 | 53.34962 | 19.00176 | 15059 ft | 265 kts | 138° |
| 2026-04-20 07:25 | 53.33501 | 19.02061 | 15060 ft | 265 kts | 139° |
| 2026-04-20 07:25 | 53.32008 | 19.03953 | 15057 ft | 266 kts | 139° |
| 2026-04-20 07:25 | 53.30535 | 19.05818 | 15057 ft | 266 kts | 139° |
| 2026-04-20 07:25 | 53.29084 | 19.07669 | 15054 ft | 266 kts | 139° |
| 2026-04-20 07:26 | 53.27616 | 19.09546 | 15052 ft | 266 kts | 140° |
| 2026-04-20 07:26 | 53.26138 | 19.11410 | 15054 ft | 266 kts | 139° |
| 2026-04-20 07:26 | 53.24658 | 19.13273 | 15049 ft | 267 kts | 139° |
| 2026-04-20 07:26 | 53.23178 | 19.15140 | 15052 ft | 266 kts | 139° |
| 2026-04-20 07:27 | 53.21704 | 19.17018 | 15048 ft | 266 kts | 139° |
| 2026-04-20 07:27 | 53.20232 | 19.18908 | 15045 ft | 267 kts | 139° |
| 2026-04-20 07:27 | 53.18751 | 19.20773 | 15047 ft | 267 kts | 139° |
| 2026-04-20 07:27 | 53.17267 | 19.22636 | 15050 ft | 267 kts | 140° |
| 2026-04-20 07:28 | 53.15782 | 19.24516 | 15046 ft | 268 kts | 140° |
| 2026-04-20 07:28 | 53.14294 | 19.26399 | 15039 ft | 268 kts | 139° |
| 2026-04-20 07:28 | 53.12807 | 19.28273 | 15043 ft | 268 kts | 140° |
| 2026-04-20 07:28 | 53.11320 | 19.30153 | 15043 ft | 268 kts | 140° |
| 2026-04-20 07:29 | 53.09847 | 19.32005 | 15041 ft | 269 kts | 141° |
| 2026-04-20 07:29 | 53.08354 | 19.33877 | 15035 ft | 269 kts | 140° |
| 2026-04-20 07:29 | 53.06857 | 19.35751 | 15038 ft | 269 kts | 141° |
| 2026-04-20 07:29 | 53.05363 | 19.37622 | 15039 ft | 269 kts | 140° |
| 2026-04-20 07:30 | 53.03867 | 19.39501 | 15040 ft | 269 kts | 140° |
| 2026-04-20 07:30 | 53.02388 | 19.41352 | 15038 ft | 269 kts | 141° |
| 2026-04-20 07:30 | 53.00866 | 19.43242 | 15034 ft | 270 kts | 141° |
| 2026-04-20 07:30 | 52.99369 | 19.45114 | 15034 ft | 269 kts | 140° |
| 2026-04-20 07:31 | 52.97867 | 19.46994 | 15041 ft | 270 kts | 141° |
| 2026-04-20 07:31 | 52.96367 | 19.48874 | 15037 ft | 271 kts | 140° |
| 2026-04-20 07:31 | 52.94877 | 19.50742 | 15035 ft | 271 kts | 141° |
| 2026-04-20 07:31 | 52.93370 | 19.52633 | 15035 ft | 272 kts | 141° |
| 2026-04-20 07:32 | 52.91863 | 19.54523 | 15021 ft | 272 kts | 140° |
| 2026-04-20 07:32 | 52.90356 | 19.56423 | 15029 ft | 272 kts | 140° |
| 2026-04-20 07:32 | 52.88854 | 19.58322 | 15026 ft | 272 kts | 141° |
| 2026-04-20 07:32 | 52.87351 | 19.60229 | 15027 ft | 271 kts | 140° |
| 2026-04-20 07:33 | 52.85856 | 19.62131 | 15035 ft | 271 kts | 140° |
| 2026-04-20 07:33 | 52.84355 | 19.64041 | 15027 ft | 272 kts | 140° |
| 2026-04-20 07:33 | 52.82874 | 19.65932 | 15024 ft | 272 kts | 140° |
| 2026-04-20 07:33 | 52.81357 | 19.67873 | 15030 ft | 272 kts | 140° |
| 2026-04-20 07:34 | 52.79880 | 19.69767 | 15027 ft | 273 kts | 141° |
| 2026-04-20 07:34 | 52.78378 | 19.71698 | 15024 ft | 273 kts | 141° |
| 2026-04-20 07:34 | 52.76878 | 19.73629 | 15020 ft | 273 kts | 141° |
| 2026-04-20 07:35 | 52.73884 | 19.77496 | 15022 ft | 273 kts | 141° |
| 2026-04-20 07:35 | 52.72391 | 19.79431 | 15019 ft | 273 kts | 140° |
| 2026-04-20 07:35 | 52.70899 | 19.81366 | 15021 ft | 273 kts | 141° |
| 2026-04-20 07:35 | 52.69406 | 19.83311 | 15021 ft | 273 kts | 141° |
| 2026-04-20 07:36 | 52.67936 | 19.85227 | 15017 ft | 273 kts | 141° |
| 2026-04-20 07:36 | 52.66447 | 19.87168 | 15019 ft | 273 kts | 140° |
| 2026-04-20 07:36 | 52.64957 | 19.89112 | 15016 ft | 273 kts | 141° |
| 2026-04-20 07:36 | 52.63509 | 19.91150 | 14869 ft | 277 kts | 128° |
| 2026-04-20 07:37 | 52.62711 | 19.93988 | 14796 ft | 274 kts | 99° |
| 2026-04-20 07:37 | 52.62450 | 19.97084 | 14714 ft | 274 kts | 95° |
| 2026-04-20 07:37 | 52.62173 | 20.00187 | 14650 ft | 275 kts | 99° |
| 2026-04-20 07:37 | 52.61742 | 20.03350 | 14173 ft | 290 kts | 104° |
| 2026-04-20 07:38 | 52.61065 | 20.06506 | 13954 ft | 294 kts | 112° |
| 2026-04-20 07:38 | 52.60121 | 20.09489 | 13813 ft | 295 kts | 118° |
| 2026-04-20 07:38 | 52.59055 | 20.12375 | 13688 ft | 294 kts | 120° |
| 2026-04-20 07:38 | 52.57984 | 20.15235 | 13534 ft | 293 kts | 120° |
| 2026-04-20 07:39 | 52.56932 | 20.18102 | 13392 ft | 292 kts | 119° |
| 2026-04-20 07:39 | 52.55917 | 20.20930 | 12943 ft | 290 kts | 118° |
| 2026-04-20 07:39 | 52.54904 | 20.23821 | 12512 ft | 287 kts | 118° |
| 2026-04-20 07:39 | 52.53932 | 20.26621 | 12101 ft | 285 kts | 117° |
| 2026-04-20 07:40 | 52.52960 | 20.29437 | 11696 ft | 282 kts | 117° |
| 2026-04-20 07:40 | 52.51997 | 20.32231 | 11304 ft | 280 kts | 117° |
| 2026-04-20 07:40 | 52.51015 | 20.34995 | 10927 ft | 278 kts | 117° |
| 2026-04-20 07:40 | 52.50035 | 20.37712 | 10531 ft | 276 kts | 118° |
| 2026-04-20 07:41 | 52.49128 | 20.40428 | 10244 ft | 265 kts | 107° |
| 2026-04-20 07:41 | 52.48941 | 20.43329 | 10009 ft | 251 kts | 84° |
| 2026-04-20 07:41 | 52.49033 | 20.46170 | 9783 ft | 247 kts | 85° |
| 2026-04-20 07:41 | 52.49050 | 20.48966 | 9541 ft | 243 kts | 88° |
| 2026-04-20 07:42 | 52.48949 | 20.51717 | 9312 ft | 239 kts | 94° |
| 2026-04-20 07:42 | 52.48534 | 20.54343 | 9086 ft | 238 kts | 107° |
| 2026-04-20 07:42 | 52.47877 | 20.56836 | 8861 ft | 237 kts | 111° |
| 2026-04-20 07:42 | 52.47170 | 20.59252 | 8649 ft | 240 kts | 112° |
| 2026-04-20 07:43 | 52.46440 | 20.61771 | 8440 ft | 242 kts | 111° |
| 2026-04-20 07:43 | 52.45731 | 20.64281 | 8223 ft | 243 kts | 112° |
| 2026-04-20 07:43 | 52.45050 | 20.66734 | 8210 ft | 236 kts | 111° |
| 2026-04-20 07:43 | 52.44376 | 20.69187 | 8053 ft | 236 kts | 111° |
| 2026-04-20 07:44 | 52.43700 | 20.71647 | 7902 ft | 236 kts | 112° |
| 2026-04-20 07:44 | 52.43022 | 20.74104 | 7729 ft | 237 kts | 111° |
| 2026-04-20 07:44 | 52.42344 | 20.76563 | 7567 ft | 237 kts | 111° |
| 2026-04-20 07:44 | 52.41665 | 20.79002 | 7392 ft | 233 kts | 112° |
| 2026-04-20 07:45 | 52.40995 | 20.81392 | 7230 ft | 229 kts | 112° |
| 2026-04-20 07:45 | 52.40335 | 20.83751 | 7066 ft | 226 kts | 111° |
| 2026-04-20 07:45 | 52.39487 | 20.85872 | 6887 ft | 228 kts | 137° |
| 2026-04-20 07:45 | 52.38007 | 20.86824 | 6712 ft | 237 kts | 173° |
| 2026-04-20 07:46 | 52.36382 | 20.86475 | 6557 ft | 240 kts | 191° |
| 2026-04-20 07:46 | 52.34798 | 20.85567 | 6379 ft | 243 kts | 200° |
| 2026-04-20 07:46 | 52.33261 | 20.84396 | 6183 ft | 244 kts | 202° |
| 2026-04-20 07:46 | 52.31777 | 20.83080 | 5960 ft | 244 kts | 215° |
| 2026-04-20 07:47 | 52.30797 | 20.80805 | 5739 ft | 250 kts | 251° |
| 2026-04-20 07:47 | 52.30728 | 20.77995 | 5560 ft | 251 kts | 285° |
| 2026-04-20 07:47 | 52.31408 | 20.75409 | 5375 ft | 248 kts | 300° |
| 2026-04-20 07:47 | 52.32215 | 20.72899 | 5181 ft | 249 kts | 300° |
| 2026-04-20 07:48 | 52.32988 | 20.70446 | 5166 ft | 242 kts | 298° |
| 2026-04-20 07:48 | 52.33730 | 20.67983 | 5054 ft | 242 kts | 298° |
| 2026-04-20 07:48 | 52.34452 | 20.65495 | 4927 ft | 243 kts | 297° |
| 2026-04-20 07:48 | 52.35035 | 20.62916 | 4777 ft | 243 kts | 278° |
| 2026-04-20 07:49 | 52.34773 | 20.60222 | 4625 ft | 242 kts | 241° |
| 2026-04-20 07:49 | 52.33667 | 20.58252 | 4493 ft | 233 kts | 205° |
| 2026-04-20 07:49 | 52.32210 | 20.57197 | 4370 ft | 228 kts | 195° |
| 2026-04-20 07:49 | 52.30725 | 20.56293 | 4229 ft | 228 kts | 193° |
| 2026-04-20 07:50 | 52.29210 | 20.55585 | 4087 ft | 224 kts | 186° |
| 2026-04-20 07:50 | 52.27735 | 20.55784 | 3968 ft | 209 kts | 149° |
| 2026-04-20 07:50 | 52.26778 | 20.57413 | 3861 ft | 198 kts | 110° |
| 2026-04-20 07:50 | 52.26400 | 20.59538 | 3755 ft | 195 kts | 104° |
| 2026-04-20 07:51 | 52.26030 | 20.61673 | 3655 ft | 196 kts | 105° |
| 2026-04-20 07:51 | 52.25628 | 20.63798 | 3554 ft | 196 kts | 106° |
| 2026-04-20 07:51 | 52.25190 | 20.65904 | 3460 ft | 196 kts | 107° |
| 2026-04-20 07:51 | 52.24684 | 20.67942 | 3339 ft | 197 kts | 111° |
| 2026-04-20 07:52 | 52.24092 | 20.69961 | 3232 ft | 197 kts | 112° |
| 2026-04-20 07:52 | 52.23491 | 20.71976 | 3123 ft | 197 kts | 112° |
| 2026-04-20 07:52 | 52.22922 | 20.73992 | 3035 ft | 190 kts | 111° |
| 2026-04-20 07:52 | 52.22406 | 20.75874 | 2914 ft | 179 kts | 111° |
| 2026-04-20 07:53 | 52.21901 | 20.77693 | 2702 ft | 171 kts | 111° |
| 2026-04-20 07:53 | 52.21427 | 20.79369 | 2472 ft | 154 kts | 111° |
| 2026-04-20 07:53 | 52.21002 | 20.80903 | 2275 ft | 144 kts | 110° |
| 2026-04-20 07:53 | 52.20596 | 20.82377 | 2078 ft | 142 kts | 110° |
| 2026-04-20 07:54 | 52.20193 | 20.83826 | 1882 ft | 137 kts | 111° |
| 2026-04-20 07:54 | 52.19815 | 20.85142 | 1708 ft | 123 kts | 110° |
| 2026-04-20 07:54 | 52.19461 | 20.86419 | 1527 ft | 127 kts | 110° |
| 2026-04-20 07:54 | 52.19096 | 20.87737 | 1345 ft | 128 kts | 111° |
| 2026-04-20 07:55 | 52.18722 | 20.89055 | 1166 ft | 129 kts | 111° |
| 2026-04-20 07:55 | 52.18340 | 20.90389 | 985 ft | 131 kts | 111° |
| 2026-04-20 07:55 | 52.17967 | 20.91706 | 799 ft | 123 kts | 109° |
| 2026-04-20 07:55 | 52.17625 | 20.92950 | 617 ft | 118 kts | 110° |
| 2026-04-20 07:56 | 52.17289 | 20.94146 | 432 ft | 118 kts | 109° |
| 2026-04-20 07:56 | 52.16959 | 20.95309 | 354 ft | 105 kts | 109° |
| 2026-04-20 07:56 | 52.16755 | 20.96108 | 335 ft | 42 kts | 114° |
| 2026-04-20 07:56 | 52.16643 | 20.96473 | 336 ft | 31 kts | 115° |
| 2026-04-20 07:57 | 52.16563 | 20.96753 | 336 ft | 24 kts | 112° |
| 2026-04-20 07:57 | 52.16515 | 20.96982 | 332 ft | 19 kts | 99° |
| 2026-04-20 07:57 | 52.16510 | 20.97149 | 334 ft | 11 kts | 88° |
| 2026-04-20 07:57 | 52.16516 | 20.97264 | 332 ft | 12 kts | 84° |
| 2026-04-20 07:58 | 52.16545 | 20.97357 | 331 ft | 9 kts | 14° |
| 2026-04-20 07:58 | 52.16598 | 20.97288 | 334 ft | 15 kts | 295° |
| 2026-04-20 07:58 | 52.16651 | 20.97097 | 331 ft | 20 kts | 294° |
| 2026-04-20 07:58 | 52.16751 | 20.96955 | 335 ft | 19 kts | 331° |
| 2026-04-20 07:59 | 52.16858 | 20.96853 | 334 ft | 17 kts | 335° |
| 2026-04-20 07:59 | 52.16955 | 20.96777 | 332 ft | 15 kts | 333° |
| 2026-04-20 07:59 | 52.17046 | 20.96698 | 333 ft | 15 kts | 333° |
| 2026-04-20 07:59 | 52.17138 | 20.96616 | 334 ft | 15 kts | 335° |
| 2026-04-20 08:00 | 52.17231 | 20.96535 | 334 ft | 15 kts | 331° |
| 2026-04-20 08:00 | 52.17328 | 20.96450 | 335 ft | 16 kts | 328° |
| 2026-04-20 08:00 | 52.17430 | 20.96401 | 334 ft | 14 kts | 33° |
| 2026-04-20 08:00 | 52.17476 | 20.96526 | 334 ft | 12 kts | 62° |
| 2026-04-20 08:01 | 52.17525 | 20.96615 | 331 ft | 10 kts | 60° |
| 2026-04-20 08:01 | 52.17557 | 20.96706 | 334 ft | 10 kts | 59° |
| 2026-04-20 08:01 | 52.17603 | 20.96828 | 334 ft | 15 kts | 56° |
| 2026-04-20 08:01 | 52.17665 | 20.96983 | 335 ft | 18 kts | 56° |
| 2026-04-20 08:02 | 52.17622 | 20.97143 | 334 ft | 20 kts | 161° |
| 2026-04-20 08:02 | 52.17588 | 20.97088 | 334 ft | 10 kts | 232° |
| 2026-04-20 08:02 | 52.17580 | 20.97062 | 335 ft | 0 kts | 242° |